sensor_id;sensor_type;location;lat;lon;timestamp;P1;durP1;ratioP1;P2;durP2;ratioP2
52468;SDS011;38381;53.688;10.776;2023-08-06T00:02:27;4.10;;;2.38;;
52468;SDS011;38381;53.688;10.776;2023-08-06T00:07:27;5.53;;;1.90;;
52468;SDS011;38381;53.688;10.776;2023-08-06T00:12:27;2.90;;;2.17;;
52468;SDS011;38381;53.688;10.776;2023-08-06T00:17:28;4.60;;;3.17;;
52468;SDS011;38381;53.688;10.776;2023-08-06T00:22:28;4.82;;;1.95;;
52468;SDS011;38381;53.688;10.776;2023-08-06T00:27:29;5.37;;;2.13;;
52468;SDS011;38381;53.688;10.776;2023-08-06T00:32:29;4.18;;;2.75;;
52468;SDS011;38381;53.688;10.776;2023-08-06T00:37:30;3.63;;;2.22;;
52468;SDS011;38381;53.688;10.776;2023-08-06T00:42:30;3.90;;;1.97;;
52468;SDS011;38381;53.688;10.776;2023-08-06T00:47:30;3.75;;;2.60;;
52468;SDS011;38381;53.688;10.776;2023-08-06T00:52:31;5.13;;;2.38;;
52468;SDS011;38381;53.688;10.776;2023-08-06T00:57:31;3.22;;;2.53;;
52468;SDS011;38381;53.688;10.776;2023-08-06T01:02:32;2.97;;;2.20;;
52468;SDS011;38381;53.688;10.776;2023-08-06T01:12:57;4.13;;;2.83;;
52468;SDS011;38381;53.688;10.776;2023-08-06T01:18:11;5.13;;;2.08;;
52468;SDS011;38381;53.688;10.776;2023-08-06T01:23:12;3.25;;;2.22;;
52468;SDS011;38381;53.688;10.776;2023-08-06T01:28:22;3.03;;;2.40;;
52468;SDS011;38381;53.688;10.776;2023-08-06T01:33:27;3.33;;;2.65;;
52468;SDS011;38381;53.688;10.776;2023-08-06T01:38:29;4.47;;;2.20;;
52468;SDS011;38381;53.688;10.776;2023-08-06T01:43:29;4.03;;;2.60;;
52468;SDS011;38381;53.688;10.776;2023-08-06T01:48:30;5.00;;;2.50;;
52468;SDS011;38381;53.688;10.776;2023-08-06T01:53:30;3.37;;;2.37;;
52468;SDS011;38381;53.688;10.776;2023-08-06T01:58:31;3.65;;;2.72;;
52468;SDS011;38381;53.688;10.776;2023-08-06T02:03:32;4.30;;;2.83;;
52468;SDS011;38381;53.688;10.776;2023-08-06T02:08:32;3.65;;;2.65;;
52468;SDS011;38381;53.688;10.776;2023-08-06T02:13:33;5.38;;;3.45;;
52468;SDS011;38381;53.688;10.776;2023-08-06T02:18:33;8.98;;;3.25;;
52468;SDS011;38381;53.688;10.776;2023-08-06T02:23:34;4.65;;;2.72;;
52468;SDS011;38381;53.688;10.776;2023-08-06T02:28:34;2.97;;;2.37;;
52468;SDS011;38381;53.688;10.776;2023-08-06T02:33:34;3.05;;;2.42;;
52468;SDS011;38381;53.688;10.776;2023-08-06T02:38:35;3.55;;;2.80;;
52468;SDS011;38381;53.688;10.776;2023-08-06T02:43:35;6.20;;;2.45;;
52468;SDS011;38381;53.688;10.776;2023-08-06T02:48:36;4.33;;;2.37;;
52468;SDS011;38381;53.688;10.776;2023-08-06T02:53:36;5.25;;;2.70;;
52468;SDS011;38381;53.688;10.776;2023-08-06T02:58:36;6.57;;;3.30;;
52468;SDS011;38381;53.688;10.776;2023-08-06T03:03:37;2.85;;;2.55;;
52468;SDS011;38381;53.688;10.776;2023-08-06T03:08:37;4.82;;;2.90;;
52468;SDS011;38381;53.688;10.776;2023-08-06T03:13:38;5.47;;;3.47;;
52468;SDS011;38381;53.688;10.776;2023-08-06T03:18:38;4.70;;;3.67;;
52468;SDS011;38381;53.688;10.776;2023-08-06T03:23:39;4.70;;;2.67;;
52468;SDS011;38381;53.688;10.776;2023-08-06T03:28:39;5.82;;;3.70;;
52468;SDS011;38381;53.688;10.776;2023-08-06T03:33:40;5.28;;;3.45;;
52468;SDS011;38381;53.688;10.776;2023-08-06T03:38:40;4.05;;;3.20;;
52468;SDS011;38381;53.688;10.776;2023-08-06T03:43:41;6.17;;;3.47;;
52468;SDS011;38381;53.688;10.776;2023-08-06T03:48:41;3.37;;;2.50;;
52468;SDS011;38381;53.688;10.776;2023-08-06T03:53:41;6.70;;;3.67;;
52468;SDS011;38381;53.688;10.776;2023-08-06T03:58:42;5.40;;;4.03;;
52468;SDS011;38381;53.688;10.776;2023-08-06T04:03:42;4.22;;;3.22;;
52468;SDS011;38381;53.688;10.776;2023-08-06T04:08:42;4.17;;;2.90;;
52468;SDS011;38381;53.688;10.776;2023-08-06T04:13:43;3.80;;;3.05;;
52468;SDS011;38381;53.688;10.776;2023-08-06T04:18:44;5.82;;;3.22;;
52468;SDS011;38381;53.688;10.776;2023-08-06T04:23:45;7.53;;;3.57;;
52468;SDS011;38381;53.688;10.776;2023-08-06T04:28:46;3.13;;;2.83;;
52468;SDS011;38381;53.688;10.776;2023-08-06T04:33:46;5.88;;;3.50;;
52468;SDS011;38381;53.688;10.776;2023-08-06T04:38:47;7.22;;;3.50;;
52468;SDS011;38381;53.688;10.776;2023-08-06T04:43:47;4.63;;;2.80;;
52468;SDS011;38381;53.688;10.776;2023-08-06T04:48:48;7.35;;;3.67;;
52468;SDS011;38381;53.688;10.776;2023-08-06T04:53:48;6.27;;;3.43;;
52468;SDS011;38381;53.688;10.776;2023-08-06T04:58:48;4.38;;;3.15;;
52468;SDS011;38381;53.688;10.776;2023-08-06T05:03:50;5.22;;;3.40;;
52468;SDS011;38381;53.688;10.776;2023-08-06T05:08:50;3.90;;;2.83;;
52468;SDS011;38381;53.688;10.776;2023-08-06T05:13:50;4.28;;;3.08;;
52468;SDS011;38381;53.688;10.776;2023-08-06T05:18:51;5.15;;;3.08;;
52468;SDS011;38381;53.688;10.776;2023-08-06T05:23:52;6.63;;;3.85;;
52468;SDS011;38381;53.688;10.776;2023-08-06T05:28:52;4.43;;;3.60;;
52468;SDS011;38381;53.688;10.776;2023-08-06T05:33:53;4.30;;;3.15;;
52468;SDS011;38381;53.688;10.776;2023-08-06T05:38:53;4.70;;;3.30;;
52468;SDS011;38381;53.688;10.776;2023-08-06T05:43:54;5.63;;;3.50;;
52468;SDS011;38381;53.688;10.776;2023-08-06T05:48:54;3.80;;;3.20;;
52468;SDS011;38381;53.688;10.776;2023-08-06T05:53:54;5.07;;;3.92;;
52468;SDS011;38381;53.688;10.776;2023-08-06T05:58:55;4.10;;;3.40;;
52468;SDS011;38381;53.688;10.776;2023-08-06T06:03:55;4.55;;;3.50;;
52468;SDS011;38381;53.688;10.776;2023-08-06T06:08:56;6.70;;;3.57;;
52468;SDS011;38381;53.688;10.776;2023-08-06T06:13:56;4.32;;;3.35;;
52468;SDS011;38381;53.688;10.776;2023-08-06T06:18:56;4.93;;;3.60;;
52468;SDS011;38381;53.688;10.776;2023-08-06T06:23:57;6.03;;;3.25;;
52468;SDS011;38381;53.688;10.776;2023-08-06T06:28:58;6.93;;;3.37;;
52468;SDS011;38381;53.688;10.776;2023-08-06T06:33:58;7.40;;;3.20;;
52468;SDS011;38381;53.688;10.776;2023-08-06T06:38:58;5.63;;;3.53;;
52468;SDS011;38381;53.688;10.776;2023-08-06T06:43:59;3.73;;;2.90;;
52468;SDS011;38381;53.688;10.776;2023-08-06T06:48:59;5.40;;;3.42;;
52468;SDS011;38381;53.688;10.776;2023-08-06T06:54:00;3.30;;;3.00;;
52468;SDS011;38381;53.688;10.776;2023-08-06T06:59:00;4.43;;;3.57;;
52468;SDS011;38381;53.688;10.776;2023-08-06T07:04:00;10.60;;;4.05;;
52468;SDS011;38381;53.688;10.776;2023-08-06T07:09:04;4.72;;;3.33;;
52468;SDS011;38381;53.688;10.776;2023-08-06T07:14:07;4.95;;;3.17;;
52468;SDS011;38381;53.688;10.776;2023-08-06T07:19:08;4.70;;;3.47;;
52468;SDS011;38381;53.688;10.776;2023-08-06T07:24:08;5.53;;;3.20;;
52468;SDS011;38381;53.688;10.776;2023-08-06T07:29:08;6.15;;;3.40;;
52468;SDS011;38381;53.688;10.776;2023-08-06T07:34:09;3.97;;;3.10;;
52468;SDS011;38381;53.688;10.776;2023-08-06T07:39:09;4.60;;;3.37;;
52468;SDS011;38381;53.688;10.776;2023-08-06T07:44:10;6.47;;;2.83;;
52468;SDS011;38381;53.688;10.776;2023-08-06T07:49:11;5.80;;;3.13;;
52468;SDS011;38381;53.688;10.776;2023-08-06T07:54:11;6.20;;;3.60;;
52468;SDS011;38381;53.688;10.776;2023-08-06T07:59:11;4.20;;;3.20;;
52468;SDS011;38381;53.688;10.776;2023-08-06T08:04:12;3.72;;;2.90;;
52468;SDS011;38381;53.688;10.776;2023-08-06T08:09:12;7.03;;;3.73;;
52468;SDS011;38381;53.688;10.776;2023-08-06T08:14:16;4.60;;;3.38;;
52468;SDS011;38381;53.688;10.776;2023-08-06T08:19:16;5.85;;;3.65;;
52468;SDS011;38381;53.688;10.776;2023-08-06T08:24:17;3.92;;;3.63;;
52468;SDS011;38381;53.688;10.776;2023-08-06T08:29:19;5.57;;;3.45;;
52468;SDS011;38381;53.688;10.776;2023-08-06T08:34:21;3.90;;;3.30;;
52468;SDS011;38381;53.688;10.776;2023-08-06T08:39:21;5.63;;;3.40;;
52468;SDS011;38381;53.688;10.776;2023-08-06T08:44:22;4.05;;;3.47;;
52468;SDS011;38381;53.688;10.776;2023-08-06T08:49:23;4.77;;;3.07;;
52468;SDS011;38381;53.688;10.776;2023-08-06T08:54:24;4.05;;;3.03;;
52468;SDS011;38381;53.688;10.776;2023-08-06T08:59:26;5.18;;;3.08;;
52468;SDS011;38381;53.688;10.776;2023-08-06T09:04:29;3.47;;;2.72;;
52468;SDS011;38381;53.688;10.776;2023-08-06T09:09:33;4.57;;;2.90;;
52468;SDS011;38381;53.688;10.776;2023-08-06T09:14:37;5.57;;;3.28;;
52468;SDS011;38381;53.688;10.776;2023-08-06T09:19:41;5.33;;;2.87;;
52468;SDS011;38381;53.688;10.776;2023-08-06T09:24:45;4.65;;;3.83;;
52468;SDS011;38381;53.688;10.776;2023-08-06T09:29:46;6.55;;;3.42;;
52468;SDS011;38381;53.688;10.776;2023-08-06T09:34:46;5.47;;;4.05;;
52468;SDS011;38381;53.688;10.776;2023-08-06T09:39:47;5.40;;;2.97;;
52468;SDS011;38381;53.688;10.776;2023-08-06T09:44:47;5.78;;;2.95;;
52468;SDS011;38381;53.688;10.776;2023-08-06T09:49:48;5.20;;;3.33;;
52468;SDS011;38381;53.688;10.776;2023-08-06T09:54:51;3.78;;;3.00;;
52468;SDS011;38381;53.688;10.776;2023-08-06T09:59:52;4.80;;;4.22;;
52468;SDS011;38381;53.688;10.776;2023-08-06T10:04:53;4.18;;;2.97;;
52468;SDS011;38381;53.688;10.776;2023-08-06T10:09:55;3.88;;;3.35;;
52468;SDS011;38381;53.688;10.776;2023-08-06T10:14:57;4.00;;;3.50;;
52468;SDS011;38381;53.688;10.776;2023-08-06T10:20:02;6.50;;;3.33;;
52468;SDS011;38381;53.688;10.776;2023-08-06T10:25:06;4.90;;;3.22;;
52468;SDS011;38381;53.688;10.776;2023-08-06T10:40:37;6.57;;;3.17;;
52468;SDS011;38381;53.688;10.776;2023-08-06T10:45:39;8.77;;;3.25;;
52468;SDS011;38381;53.688;10.776;2023-08-06T10:50:50;4.60;;;3.13;;
52468;SDS011;38381;53.688;10.776;2023-08-06T10:55:50;6.65;;;3.03;;
52468;SDS011;38381;53.688;10.776;2023-08-06T11:00:51;4.93;;;3.03;;
52468;SDS011;38381;53.688;10.776;2023-08-06T11:05:51;6.25;;;3.42;;
52468;SDS011;38381;53.688;10.776;2023-08-06T11:10:52;4.57;;;3.08;;
52468;SDS011;38381;53.688;10.776;2023-08-06T11:15:53;3.55;;;2.80;;
52468;SDS011;38381;53.688;10.776;2023-08-06T11:20:54;6.72;;;3.53;;
52468;SDS011;38381;53.688;10.776;2023-08-06T11:25:55;6.07;;;4.15;;
52468;SDS011;38381;53.688;10.776;2023-08-06T11:30:56;8.77;;;3.05;;
52468;SDS011;38381;53.688;10.776;2023-08-06T11:36:01;6.13;;;3.45;;
52468;SDS011;38381;53.688;10.776;2023-08-06T11:41:01;5.07;;;3.80;;
52468;SDS011;38381;53.688;10.776;2023-08-06T11:46:02;4.78;;;3.25;;
52468;SDS011;38381;53.688;10.776;2023-08-06T11:51:02;5.33;;;4.30;;
52468;SDS011;38381;53.688;10.776;2023-08-06T11:56:05;4.95;;;3.90;;
52468;SDS011;38381;53.688;10.776;2023-08-06T12:01:05;4.32;;;2.90;;
52468;SDS011;38381;53.688;10.776;2023-08-06T12:06:06;7.82;;;3.67;;
52468;SDS011;38381;53.688;10.776;2023-08-06T12:11:07;5.03;;;3.57;;
52468;SDS011;38381;53.688;10.776;2023-08-06T12:16:07;4.45;;;3.05;;
52468;SDS011;38381;53.688;10.776;2023-08-06T12:21:08;7.10;;;3.10;;
52468;SDS011;38381;53.688;10.776;2023-08-06T12:26:08;4.30;;;2.53;;
52468;SDS011;38381;53.688;10.776;2023-08-06T12:31:09;3.38;;;2.25;;
52468;SDS011;38381;53.688;10.776;2023-08-06T12:36:09;5.72;;;2.83;;
52468;SDS011;38381;53.688;10.776;2023-08-06T12:41:09;5.77;;;2.63;;
52468;SDS011;38381;53.688;10.776;2023-08-06T12:46:10;6.28;;;2.38;;
52468;SDS011;38381;53.688;10.776;2023-08-06T12:51:11;4.53;;;2.60;;
52468;SDS011;38381;53.688;10.776;2023-08-06T12:56:12;4.07;;;2.03;;
52468;SDS011;38381;53.688;10.776;2023-08-06T13:01:12;3.47;;;2.03;;
52468;SDS011;38381;53.688;10.776;2023-08-06T13:06:13;1.70;;;1.60;;
52468;SDS011;38381;53.688;10.776;2023-08-06T13:11:13;4.50;;;2.03;;
52468;SDS011;38381;53.688;10.776;2023-08-06T13:16:13;2.65;;;1.40;;
52468;SDS011;38381;53.688;10.776;2023-08-06T13:21:14;3.10;;;1.52;;
52468;SDS011;38381;53.688;10.776;2023-08-06T13:26:14;2.92;;;1.70;;
52468;SDS011;38381;53.688;10.776;2023-08-06T13:31:18;1.70;;;1.35;;
52468;SDS011;38381;53.688;10.776;2023-08-06T13:36:18;2.42;;;1.52;;
52468;SDS011;38381;53.688;10.776;2023-08-06T13:41:19;4.10;;;1.90;;
52468;SDS011;38381;53.688;10.776;2023-08-06T13:46:19;2.30;;;1.60;;
52468;SDS011;38381;53.688;10.776;2023-08-06T13:51:20;1.52;;;1.17;;
52468;SDS011;38381;53.688;10.776;2023-08-06T13:56:20;2.03;;;1.43;;
52468;SDS011;38381;53.688;10.776;2023-08-06T14:01:20;2.25;;;1.65;;
52468;SDS011;38381;53.688;10.776;2023-08-06T14:06:21;3.45;;;1.60;;
52468;SDS011;38381;53.688;10.776;2023-08-06T14:11:21;2.70;;;1.40;;
52468;SDS011;38381;53.688;10.776;2023-08-06T14:16:22;3.33;;;1.42;;
52468;SDS011;38381;53.688;10.776;2023-08-06T14:21:22;2.67;;;1.60;;
52468;SDS011;38381;53.688;10.776;2023-08-06T14:26:23;3.10;;;2.10;;
52468;SDS011;38381;53.688;10.776;2023-08-06T14:31:23;4.93;;;2.33;;
52468;SDS011;38381;53.688;10.776;2023-08-06T14:36:24;6.25;;;1.83;;
52468;SDS011;38381;53.688;10.776;2023-08-06T14:41:24;4.80;;;1.65;;
52468;SDS011;38381;53.688;10.776;2023-08-06T14:46:25;6.18;;;2.17;;
52468;SDS011;38381;53.688;10.776;2023-08-06T14:51:25;2.45;;;1.67;;
52468;SDS011;38381;53.688;10.776;2023-08-06T14:56:26;4.28;;;2.40;;
52468;SDS011;38381;53.688;10.776;2023-08-06T15:01:26;3.53;;;2.13;;
52468;SDS011;38381;53.688;10.776;2023-08-06T15:06:27;3.00;;;1.90;;
52468;SDS011;38381;53.688;10.776;2023-08-06T15:11:27;12.52;;;2.35;;
52468;SDS011;38381;53.688;10.776;2023-08-06T15:16:27;4.63;;;1.70;;
52468;SDS011;38381;53.688;10.776;2023-08-06T15:21:28;1.63;;;1.30;;
52468;SDS011;38381;53.688;10.776;2023-08-06T15:26:28;3.37;;;1.67;;
52468;SDS011;38381;53.688;10.776;2023-08-06T15:31:35;5.20;;;1.60;;
52468;SDS011;38381;53.688;10.776;2023-08-06T15:36:39;2.90;;;1.50;;
52468;SDS011;38381;53.688;10.776;2023-08-06T15:41:39;1.67;;;1.38;;
52468;SDS011;38381;53.688;10.776;2023-08-06T15:46:40;2.08;;;1.45;;
52468;SDS011;38381;53.688;10.776;2023-08-06T15:51:40;2.73;;;1.77;;
52468;SDS011;38381;53.688;10.776;2023-08-06T15:56:41;1.83;;;1.48;;
52468;SDS011;38381;53.688;10.776;2023-08-06T16:01:42;2.20;;;1.57;;
52468;SDS011;38381;53.688;10.776;2023-08-06T16:06:42;2.70;;;1.73;;
52468;SDS011;38381;53.688;10.776;2023-08-06T16:11:43;2.28;;;1.65;;
52468;SDS011;38381;53.688;10.776;2023-08-06T16:16:45;3.40;;;1.60;;
52468;SDS011;38381;53.688;10.776;2023-08-06T16:21:46;2.80;;;1.75;;
52468;SDS011;38381;53.688;10.776;2023-08-06T16:26:47;3.03;;;1.77;;
52468;SDS011;38381;53.688;10.776;2023-08-06T16:31:47;4.13;;;1.73;;
52468;SDS011;38381;53.688;10.776;2023-08-06T16:36:47;2.35;;;1.85;;
52468;SDS011;38381;53.688;10.776;2023-08-06T16:41:48;5.93;;;2.23;;
52468;SDS011;38381;53.688;10.776;2023-08-06T16:46:48;2.28;;;1.90;;
52468;SDS011;38381;53.688;10.776;2023-08-06T16:51:49;2.00;;;1.80;;
52468;SDS011;38381;53.688;10.776;2023-08-06T16:56:49;5.47;;;2.72;;
52468;SDS011;38381;53.688;10.776;2023-08-06T17:01:50;10.20;;;2.05;;
52468;SDS011;38381;53.688;10.776;2023-08-06T17:06:51;4.43;;;2.78;;
52468;SDS011;38381;53.688;10.776;2023-08-06T17:11:51;3.20;;;2.13;;
52468;SDS011;38381;53.688;10.776;2023-08-06T17:16:52;5.35;;;2.45;;
52468;SDS011;38381;53.688;10.776;2023-08-06T17:21:52;3.03;;;1.95;;
52468;SDS011;38381;53.688;10.776;2023-08-06T17:26:53;3.53;;;2.03;;
52468;SDS011;38381;53.688;10.776;2023-08-06T17:31:58;5.28;;;2.45;;
52468;SDS011;38381;53.688;10.776;2023-08-06T17:36:59;3.75;;;2.50;;
52468;SDS011;38381;53.688;10.776;2023-08-06T17:42:00;4.38;;;2.10;;
52468;SDS011;38381;53.688;10.776;2023-08-06T17:47:03;4.32;;;2.20;;
52468;SDS011;38381;53.688;10.776;2023-08-06T17:52:04;3.30;;;1.60;;
52468;SDS011;38381;53.688;10.776;2023-08-06T17:57:05;3.08;;;2.17;;
52468;SDS011;38381;53.688;10.776;2023-08-06T18:02:05;2.63;;;2.00;;
52468;SDS011;38381;53.688;10.776;2023-08-06T18:07:06;3.72;;;2.40;;
52468;SDS011;38381;53.688;10.776;2023-08-06T18:12:07;4.05;;;2.35;;
52468;SDS011;38381;53.688;10.776;2023-08-06T18:17:11;2.97;;;2.22;;
52468;SDS011;38381;53.688;10.776;2023-08-06T18:22:11;3.78;;;2.15;;
52468;SDS011;38381;53.688;10.776;2023-08-06T18:27:12;2.83;;;2.15;;
52468;SDS011;38381;53.688;10.776;2023-08-06T18:32:17;5.22;;;2.08;;
52468;SDS011;38381;53.688;10.776;2023-08-06T18:37:17;4.30;;;2.20;;
52468;SDS011;38381;53.688;10.776;2023-08-06T18:42:18;2.92;;;2.33;;
52468;SDS011;38381;53.688;10.776;2023-08-06T18:47:18;3.22;;;2.05;;
52468;SDS011;38381;53.688;10.776;2023-08-06T18:52:19;3.35;;;2.53;;
52468;SDS011;38381;53.688;10.776;2023-08-06T18:57:20;2.38;;;1.85;;
52468;SDS011;38381;53.688;10.776;2023-08-06T19:02:22;2.63;;;1.90;;
52468;SDS011;38381;53.688;10.776;2023-08-06T19:07:23;3.92;;;2.17;;
52468;SDS011;38381;53.688;10.776;2023-08-06T19:12:23;2.95;;;2.55;;
52468;SDS011;38381;53.688;10.776;2023-08-06T19:17:24;2.67;;;2.03;;
52468;SDS011;38381;53.688;10.776;2023-08-06T19:22:24;4.00;;;2.17;;
52468;SDS011;38381;53.688;10.776;2023-08-06T19:27:25;2.20;;;1.70;;
52468;SDS011;38381;53.688;10.776;2023-08-06T19:32:25;3.45;;;2.55;;
52468;SDS011;38381;53.688;10.776;2023-08-06T19:37:26;6.57;;;2.00;;
52468;SDS011;38381;53.688;10.776;2023-08-06T19:42:27;3.65;;;2.13;;
52468;SDS011;38381;53.688;10.776;2023-08-06T19:47:27;2.97;;;2.40;;
52468;SDS011;38381;53.688;10.776;2023-08-06T19:52:28;3.30;;;2.20;;
52468;SDS011;38381;53.688;10.776;2023-08-06T19:57:28;7.33;;;2.70;;
52468;SDS011;38381;53.688;10.776;2023-08-06T20:02:29;2.60;;;2.10;;
52468;SDS011;38381;53.688;10.776;2023-08-06T20:07:29;6.10;;;2.63;;
52468;SDS011;38381;53.688;10.776;2023-08-06T20:12:30;4.10;;;2.00;;
52468;SDS011;38381;53.688;10.776;2023-08-06T20:17:30;3.83;;;2.53;;
52468;SDS011;38381;53.688;10.776;2023-08-06T20:22:31;3.03;;;2.38;;
52468;SDS011;38381;53.688;10.776;2023-08-06T20:27:31;5.78;;;2.50;;
52468;SDS011;38381;53.688;10.776;2023-08-06T20:32:31;3.83;;;2.17;;
52468;SDS011;38381;53.688;10.776;2023-08-06T20:37:32;3.63;;;2.00;;
52468;SDS011;38381;53.688;10.776;2023-08-06T20:42:33;4.68;;;2.88;;
52468;SDS011;38381;53.688;10.776;2023-08-06T20:47:33;2.80;;;2.45;;
52468;SDS011;38381;53.688;10.776;2023-08-06T20:52:34;3.38;;;2.53;;
52468;SDS011;38381;53.688;10.776;2023-08-06T20:57:34;3.30;;;2.55;;
52468;SDS011;38381;53.688;10.776;2023-08-06T21:02:35;4.37;;;2.80;;
52468;SDS011;38381;53.688;10.776;2023-08-06T21:07:35;5.53;;;2.57;;
52468;SDS011;38381;53.688;10.776;2023-08-06T21:12:36;3.38;;;2.60;;
52468;SDS011;38381;53.688;10.776;2023-08-06T21:17:36;3.63;;;2.35;;
52468;SDS011;38381;53.688;10.776;2023-08-06T21:22:38;3.08;;;2.10;;
52468;SDS011;38381;53.688;10.776;2023-08-06T21:27:38;4.07;;;1.92;;
52468;SDS011;38381;53.688;10.776;2023-08-06T21:32:40;4.57;;;2.75;;
52468;SDS011;38381;53.688;10.776;2023-08-06T21:37:40;2.92;;;2.05;;
52468;SDS011;38381;53.688;10.776;2023-08-06T21:42:43;2.58;;;1.90;;
52468;SDS011;38381;53.688;10.776;2023-08-06T21:47:45;4.38;;;1.95;;
52468;SDS011;38381;53.688;10.776;2023-08-06T21:52:45;4.05;;;2.75;;
52468;SDS011;38381;53.688;10.776;2023-08-06T21:57:48;2.60;;;2.15;;
52468;SDS011;38381;53.688;10.776;2023-08-06T22:02:49;5.78;;;2.53;;
52468;SDS011;38381;53.688;10.776;2023-08-06T22:07:49;8.57;;;2.20;;
52468;SDS011;38381;53.688;10.776;2023-08-06T22:12:49;4.90;;;2.57;;
52468;SDS011;38381;53.688;10.776;2023-08-06T22:17:50;3.22;;;2.15;;
52468;SDS011;38381;53.688;10.776;2023-08-06T22:22:51;2.40;;;2.10;;
52468;SDS011;38381;53.688;10.776;2023-08-06T22:27:51;2.58;;;2.05;;
52468;SDS011;38381;53.688;10.776;2023-08-06T22:32:52;5.07;;;2.17;;
52468;SDS011;38381;53.688;10.776;2023-08-06T22:37:53;4.22;;;2.50;;
52468;SDS011;38381;53.688;10.776;2023-08-06T22:42:53;3.15;;;2.03;;
52468;SDS011;38381;53.688;10.776;2023-08-06T22:47:54;2.20;;;2.00;;
52468;SDS011;38381;53.688;10.776;2023-08-06T22:52:54;4.85;;;2.33;;
52468;SDS011;38381;53.688;10.776;2023-08-06T22:57:54;2.87;;;2.57;;
52468;SDS011;38381;53.688;10.776;2023-08-06T23:02:55;5.80;;;2.13;;
52468;SDS011;38381;53.688;10.776;2023-08-06T23:07:55;2.93;;;2.13;;
52468;SDS011;38381;53.688;10.776;2023-08-06T23:12:56;6.18;;;2.60;;
52468;SDS011;38381;53.688;10.776;2023-08-06T23:17:56;5.38;;;2.65;;
52468;SDS011;38381;53.688;10.776;2023-08-06T23:22:57;3.65;;;2.42;;
52468;SDS011;38381;53.688;10.776;2023-08-06T23:27:57;3.67;;;2.40;;
52468;SDS011;38381;53.688;10.776;2023-08-06T23:32:57;7.40;;;2.47;;
52468;SDS011;38381;53.688;10.776;2023-08-06T23:37:58;2.95;;;2.25;;
52468;SDS011;38381;53.688;10.776;2023-08-06T23:42:58;3.13;;;2.40;;
52468;SDS011;38381;53.688;10.776;2023-08-06T23:47:59;3.00;;;2.07;;
52468;SDS011;38381;53.688;10.776;2023-08-06T23:52:59;2.75;;;2.10;;
52468;SDS011;38381;53.688;10.776;2023-08-06T23:58:00;2.88;;;1.90;;
